sensor_id;sensor_type;location;lat;lon;timestamp;temperature;humidity
3051;DHT22;1535;51.098;6.414;2023-03-14T00:02:19;12.00;99.90
3051;DHT22;1535;51.098;6.414;2023-03-14T00:04:45;12.00;99.90
3051;DHT22;1535;51.098;6.414;2023-03-14T00:07:14;12.00;99.90
3051;DHT22;1535;51.098;6.414;2023-03-14T00:09:41;12.10;99.90
3051;DHT22;1535;51.098;6.414;2023-03-14T00:12:09;11.70;99.90
3051;DHT22;1535;51.098;6.414;2023-03-14T00:14:36;11.20;99.90
3051;DHT22;1535;51.098;6.414;2023-03-14T00:17:03;11.00;99.90
3051;DHT22;1535;51.098;6.414;2023-03-14T00:19:29;10.70;99.90
3051;DHT22;1535;51.098;6.414;2023-03-14T00:21:56;10.50;99.90
3051;DHT22;1535;51.098;6.414;2023-03-14T00:24:24;10.10;99.90
3051;DHT22;1535;51.098;6.414;2023-03-14T00:26:51;9.80;99.90
3051;DHT22;1535;51.098;6.414;2023-03-14T00:29:18;9.60;99.90
3051;DHT22;1535;51.098;6.414;2023-03-14T00:31:45;9.40;99.90
3051;DHT22;1535;51.098;6.414;2023-03-14T00:34:12;9.40;99.90
3051;DHT22;1535;51.098;6.414;2023-03-14T00:36:39;9.30;99.90
3051;DHT22;1535;51.098;6.414;2023-03-14T00:39:06;9.20;99.90
3051;DHT22;1535;51.098;6.414;2023-03-14T00:41:35;9.20;99.90
3051;DHT22;1535;51.098;6.414;2023-03-14T00:44:01;9.20;99.90
3051;DHT22;1535;51.098;6.414;2023-03-14T00:46:28;9.00;99.90
3051;DHT22;1535;51.098;6.414;2023-03-14T00:48:55;8.90;99.90
3051;DHT22;1535;51.098;6.414;2023-03-14T00:51:22;8.90;99.90
3051;DHT22;1535;51.098;6.414;2023-03-14T00:53:49;9.00;99.90
3051;DHT22;1535;51.098;6.414;2023-03-14T00:56:16;9.00;99.90
3051;DHT22;1535;51.098;6.414;2023-03-14T00:58:44;9.00;99.90
3051;DHT22;1535;51.098;6.414;2023-03-14T01:01:14;9.00;99.90
3051;DHT22;1535;51.098;6.414;2023-03-14T01:03:42;9.10;99.90
3051;DHT22;1535;51.098;6.414;2023-03-14T01:06:11;9.10;99.90
3051;DHT22;1535;51.098;6.414;2023-03-14T01:08:38;9.10;99.90
3051;DHT22;1535;51.098;6.414;2023-03-14T01:11:07;9.10;99.90
3051;DHT22;1535;51.098;6.414;2023-03-14T01:13:35;9.10;99.90
3051;DHT22;1535;51.098;6.414;2023-03-14T01:16:06;9.20;99.90
3051;DHT22;1535;51.098;6.414;2023-03-14T01:18:34;9.20;99.90
3051;DHT22;1535;51.098;6.414;2023-03-14T01:21:01;9.30;99.90
3051;DHT22;1535;51.098;6.414;2023-03-14T01:23:28;9.40;99.90
3051;DHT22;1535;51.098;6.414;2023-03-14T01:25:55;9.40;99.90
3051;DHT22;1535;51.098;6.414;2023-03-14T01:28:22;9.40;99.90
3051;DHT22;1535;51.098;6.414;2023-03-14T01:30:49;9.40;99.90
3051;DHT22;1535;51.098;6.414;2023-03-14T01:33:18;9.40;99.90
3051;DHT22;1535;51.098;6.414;2023-03-14T01:35:45;9.50;99.90
3051;DHT22;1535;51.098;6.414;2023-03-14T01:38:12;9.50;99.90
3051;DHT22;1535;51.098;6.414;2023-03-14T01:40:43;9.50;99.90
3051;DHT22;1535;51.098;6.414;2023-03-14T01:43:15;9.50;99.90
3051;DHT22;1535;51.098;6.414;2023-03-14T01:48:53;9.50;99.90
3051;DHT22;1535;51.098;6.414;2023-03-14T01:51:24;9.50;99.90
3051;DHT22;1535;51.098;6.414;2023-03-14T01:53:52;9.50;99.90
3051;DHT22;1535;51.098;6.414;2023-03-14T01:56:21;9.40;99.90
3051;DHT22;1535;51.098;6.414;2023-03-14T01:58:51;9.40;99.90
3051;DHT22;1535;51.098;6.414;2023-03-14T02:01:21;9.40;99.90
3051;DHT22;1535;51.098;6.414;2023-03-14T02:03:55;9.40;99.90
3051;DHT22;1535;51.098;6.414;2023-03-14T02:06:24;9.40;99.90
3051;DHT22;1535;51.098;6.414;2023-03-14T02:08:53;9.30;99.90
3051;DHT22;1535;51.098;6.414;2023-03-14T02:11:20;9.30;99.90
3051;DHT22;1535;51.098;6.414;2023-03-14T02:13:48;9.30;99.90
3051;DHT22;1535;51.098;6.414;2023-03-14T02:16:16;9.20;99.90
3051;DHT22;1535;51.098;6.414;2023-03-14T02:18:43;9.30;99.90
3051;DHT22;1535;51.098;6.414;2023-03-14T02:21:17;9.30;99.90
3051;DHT22;1535;51.098;6.414;2023-03-14T02:23:53;9.40;99.90
3051;DHT22;1535;51.098;6.414;2023-03-14T02:26:24;9.40;99.90
3051;DHT22;1535;51.098;6.414;2023-03-14T02:28:53;9.50;99.90
3051;DHT22;1535;51.098;6.414;2023-03-14T02:31:22;9.60;99.90
3051;DHT22;1535;51.098;6.414;2023-03-14T02:33:49;9.60;99.90
3051;DHT22;1535;51.098;6.414;2023-03-14T02:36:18;9.60;99.90
3051;DHT22;1535;51.098;6.414;2023-03-14T02:38:50;9.70;99.90
3051;DHT22;1535;51.098;6.414;2023-03-14T02:41:18;9.70;99.90
3051;DHT22;1535;51.098;6.414;2023-03-14T02:43:45;9.80;99.90
3051;DHT22;1535;51.098;6.414;2023-03-14T02:46:15;9.80;99.90
3051;DHT22;1535;51.098;6.414;2023-03-14T02:48:45;9.90;99.90
3051;DHT22;1535;51.098;6.414;2023-03-14T02:51:13;9.90;99.90
3051;DHT22;1535;51.098;6.414;2023-03-14T02:53:41;9.90;99.90
3051;DHT22;1535;51.098;6.414;2023-03-14T02:56:09;9.90;99.90
3051;DHT22;1535;51.098;6.414;2023-03-14T02:58:36;9.90;99.90
3051;DHT22;1535;51.098;6.414;2023-03-14T03:01:03;9.90;99.90
3051;DHT22;1535;51.098;6.414;2023-03-14T03:03:32;9.80;99.90
3051;DHT22;1535;51.098;6.414;2023-03-14T03:05:59;9.70;99.90
3051;DHT22;1535;51.098;6.414;2023-03-14T03:08:27;9.70;99.90
3051;DHT22;1535;51.098;6.414;2023-03-14T03:10:55;9.70;99.90
3051;DHT22;1535;51.098;6.414;2023-03-14T03:13:22;9.60;99.90
3051;DHT22;1535;51.098;6.414;2023-03-14T03:15:49;9.60;99.90
3051;DHT22;1535;51.098;6.414;2023-03-14T03:18:16;9.60;99.90
3051;DHT22;1535;51.098;6.414;2023-03-14T03:20:45;9.60;99.90
3051;DHT22;1535;51.098;6.414;2023-03-14T03:23:12;9.60;99.90
3051;DHT22;1535;51.098;6.414;2023-03-14T03:25:39;9.50;99.90
3051;DHT22;1535;51.098;6.414;2023-03-14T03:28:05;9.50;99.90
3051;DHT22;1535;51.098;6.414;2023-03-14T03:30:36;9.40;99.90
3051;DHT22;1535;51.098;6.414;2023-03-14T03:33:03;9.30;99.90
3051;DHT22;1535;51.098;6.414;2023-03-14T03:35:31;9.40;99.90
3051;DHT22;1535;51.098;6.414;2023-03-14T03:37:59;9.40;99.90
3051;DHT22;1535;51.098;6.414;2023-03-14T03:40:27;9.50;99.90
3051;DHT22;1535;51.098;6.414;2023-03-14T03:42:54;9.50;99.90
3051;DHT22;1535;51.098;6.414;2023-03-14T03:45:20;9.60;99.90
3051;DHT22;1535;51.098;6.414;2023-03-14T03:47:48;9.60;99.90
3051;DHT22;1535;51.098;6.414;2023-03-14T03:50:15;9.70;99.90
3051;DHT22;1535;51.098;6.414;2023-03-14T03:52:42;9.60;99.90
3051;DHT22;1535;51.098;6.414;2023-03-14T03:55:11;9.60;99.90
3051;DHT22;1535;51.098;6.414;2023-03-14T03:57:37;9.70;99.90
3051;DHT22;1535;51.098;6.414;2023-03-14T04:00:06;9.60;99.90
3051;DHT22;1535;51.098;6.414;2023-03-14T04:02:34;9.60;99.90
3051;DHT22;1535;51.098;6.414;2023-03-14T04:05:02;9.60;99.90
3051;DHT22;1535;51.098;6.414;2023-03-14T04:07:31;9.60;99.90
3051;DHT22;1535;51.098;6.414;2023-03-14T04:09:58;9.60;99.90
3051;DHT22;1535;51.098;6.414;2023-03-14T04:12:26;9.60;99.90
3051;DHT22;1535;51.098;6.414;2023-03-14T04:14:53;9.60;99.90
3051;DHT22;1535;51.098;6.414;2023-03-14T04:17:20;9.60;99.90
3051;DHT22;1535;51.098;6.414;2023-03-14T04:19:47;9.70;99.90
3051;DHT22;1535;51.098;6.414;2023-03-14T04:22:16;9.60;99.90
3051;DHT22;1535;51.098;6.414;2023-03-14T04:24:43;9.60;99.90
3051;DHT22;1535;51.098;6.414;2023-03-14T04:27:10;9.60;99.90
3051;DHT22;1535;51.098;6.414;2023-03-14T04:29:38;9.60;99.90
3051;DHT22;1535;51.098;6.414;2023-03-14T04:32:05;9.50;99.90
3051;DHT22;1535;51.098;6.414;2023-03-14T04:34:31;9.50;99.90
3051;DHT22;1535;51.098;6.414;2023-03-14T04:36:58;9.50;99.90
3051;DHT22;1535;51.098;6.414;2023-03-14T04:39:25;9.60;99.90
3051;DHT22;1535;51.098;6.414;2023-03-14T04:41:52;9.50;99.90
3051;DHT22;1535;51.098;6.414;2023-03-14T04:44:19;9.50;99.90
3051;DHT22;1535;51.098;6.414;2023-03-14T04:46:47;9.40;99.90
3051;DHT22;1535;51.098;6.414;2023-03-14T04:49:14;9.40;99.90
3051;DHT22;1535;51.098;6.414;2023-03-14T04:51:41;9.40;99.90
3051;DHT22;1535;51.098;6.414;2023-03-14T04:54:08;9.40;99.90
3051;DHT22;1535;51.098;6.414;2023-03-14T04:56:36;9.40;99.90
3051;DHT22;1535;51.098;6.414;2023-03-14T04:59:04;9.40;99.90
3051;DHT22;1535;51.098;6.414;2023-03-14T05:01:31;9.40;99.90
3051;DHT22;1535;51.098;6.414;2023-03-14T05:04:00;9.40;99.90
3051;DHT22;1535;51.098;6.414;2023-03-14T05:06:27;9.50;99.90
3051;DHT22;1535;51.098;6.414;2023-03-14T05:08:54;9.50;99.90
3051;DHT22;1535;51.098;6.414;2023-03-14T05:11:20;9.50;99.90
3051;DHT22;1535;51.098;6.414;2023-03-14T05:13:47;9.50;99.90
3051;DHT22;1535;51.098;6.414;2023-03-14T05:16:15;9.50;99.90
3051;DHT22;1535;51.098;6.414;2023-03-14T05:18:41;9.50;99.90
3051;DHT22;1535;51.098;6.414;2023-03-14T05:21:09;9.40;99.90
3051;DHT22;1535;51.098;6.414;2023-03-14T05:23:36;9.40;99.90
3051;DHT22;1535;51.098;6.414;2023-03-14T05:26:03;9.50;99.90
3051;DHT22;1535;51.098;6.414;2023-03-14T05:28:30;9.50;99.90
3051;DHT22;1535;51.098;6.414;2023-03-14T05:30:56;9.50;99.90
3051;DHT22;1535;51.098;6.414;2023-03-14T05:33:23;9.50;99.90
3051;DHT22;1535;51.098;6.414;2023-03-14T05:35:51;9.40;99.90
3051;DHT22;1535;51.098;6.414;2023-03-14T05:38:19;9.40;99.90
3051;DHT22;1535;51.098;6.414;2023-03-14T05:40:45;9.30;99.90
3051;DHT22;1535;51.098;6.414;2023-03-14T05:43:12;9.30;99.90
3051;DHT22;1535;51.098;6.414;2023-03-14T05:45:40;9.30;99.90
3051;DHT22;1535;51.098;6.414;2023-03-14T05:48:08;9.30;99.90
3051;DHT22;1535;51.098;6.414;2023-03-14T05:50:34;9.40;99.90
3051;DHT22;1535;51.098;6.414;2023-03-14T05:53:02;9.30;99.90
3051;DHT22;1535;51.098;6.414;2023-03-14T05:55:30;9.30;99.90
3051;DHT22;1535;51.098;6.414;2023-03-14T05:57:58;9.30;99.90
3051;DHT22;1535;51.098;6.414;2023-03-14T06:00:25;9.40;99.90
3051;DHT22;1535;51.098;6.414;2023-03-14T06:02:52;9.40;99.90
3051;DHT22;1535;51.098;6.414;2023-03-14T06:05:18;9.40;99.90
3051;DHT22;1535;51.098;6.414;2023-03-14T06:07:45;9.40;99.90
3051;DHT22;1535;51.098;6.414;2023-03-14T06:10:13;9.40;99.90
3051;DHT22;1535;51.098;6.414;2023-03-14T06:12:41;9.40;99.90
3051;DHT22;1535;51.098;6.414;2023-03-14T06:15:08;9.40;99.90
3051;DHT22;1535;51.098;6.414;2023-03-14T06:17:36;9.40;99.90
3051;DHT22;1535;51.098;6.414;2023-03-14T06:20:03;9.50;99.90
3051;DHT22;1535;51.098;6.414;2023-03-14T06:22:30;9.50;99.90
3051;DHT22;1535;51.098;6.414;2023-03-14T06:24:56;9.50;99.90
3051;DHT22;1535;51.098;6.414;2023-03-14T06:27:24;9.60;99.90
3051;DHT22;1535;51.098;6.414;2023-03-14T06:29:52;9.60;99.90
3051;DHT22;1535;51.098;6.414;2023-03-14T06:32:19;9.60;99.90
3051;DHT22;1535;51.098;6.414;2023-03-14T06:34:47;9.70;99.90
3051;DHT22;1535;51.098;6.414;2023-03-14T06:37:13;9.70;99.90
3051;DHT22;1535;51.098;6.414;2023-03-14T06:39:41;9.80;99.90
3051;DHT22;1535;51.098;6.414;2023-03-14T06:42:09;9.80;99.90
3051;DHT22;1535;51.098;6.414;2023-03-14T06:44:36;9.80;99.90
3051;DHT22;1535;51.098;6.414;2023-03-14T06:47:04;9.80;99.90
3051;DHT22;1535;51.098;6.414;2023-03-14T06:49:31;9.80;99.90
3051;DHT22;1535;51.098;6.414;2023-03-14T06:51:57;9.80;99.90
3051;DHT22;1535;51.098;6.414;2023-03-14T06:54:24;9.80;99.90
3051;DHT22;1535;51.098;6.414;2023-03-14T06:56:51;9.90;99.90
3051;DHT22;1535;51.098;6.414;2023-03-14T06:59:18;9.90;99.90
3051;DHT22;1535;51.098;6.414;2023-03-14T07:01:45;9.80;99.90
3051;DHT22;1535;51.098;6.414;2023-03-14T07:04:14;9.90;99.90
3051;DHT22;1535;51.098;6.414;2023-03-14T07:06:42;10.00;99.90
3051;DHT22;1535;51.098;6.414;2023-03-14T07:09:09;10.10;99.90
3051;DHT22;1535;51.098;6.414;2023-03-14T07:11:37;10.10;99.90
3051;DHT22;1535;51.098;6.414;2023-03-14T07:14:04;10.30;99.90
3051;DHT22;1535;51.098;6.414;2023-03-14T07:16:30;10.40;99.90
3051;DHT22;1535;51.098;6.414;2023-03-14T07:18:58;10.40;99.90
3051;DHT22;1535;51.098;6.414;2023-03-14T07:21:26;10.40;99.90
3051;DHT22;1535;51.098;6.414;2023-03-14T07:23:53;10.40;99.90
3051;DHT22;1535;51.098;6.414;2023-03-14T07:26:20;10.40;99.90
3051;DHT22;1535;51.098;6.414;2023-03-14T07:28:47;10.40;99.90
3051;DHT22;1535;51.098;6.414;2023-03-14T07:31:14;10.30;99.90
3051;DHT22;1535;51.098;6.414;2023-03-14T07:33:55;10.40;99.90
3051;DHT22;1535;51.098;6.414;2023-03-14T07:36:37;10.40;99.90
3051;DHT22;1535;51.098;6.414;2023-03-14T07:39:04;10.40;99.90
3051;DHT22;1535;51.098;6.414;2023-03-14T07:41:31;10.40;99.90
3051;DHT22;1535;51.098;6.414;2023-03-14T07:43:58;10.50;99.90
3051;DHT22;1535;51.098;6.414;2023-03-14T07:46:25;10.60;99.90
3051;DHT22;1535;51.098;6.414;2023-03-14T07:48:51;10.80;99.90
3051;DHT22;1535;51.098;6.414;2023-03-14T07:51:18;11.00;99.90
3051;DHT22;1535;51.098;6.414;2023-03-14T07:53:46;11.00;99.90
3051;DHT22;1535;51.098;6.414;2023-03-14T07:56:13;11.10;99.90
3051;DHT22;1535;51.098;6.414;2023-03-14T07:58:40;11.20;99.90
3051;DHT22;1535;51.098;6.414;2023-03-14T08:01:07;11.30;99.90
3051;DHT22;1535;51.098;6.414;2023-03-14T08:03:33;11.30;99.90
3051;DHT22;1535;51.098;6.414;2023-03-14T08:06:00;11.30;99.90
3051;DHT22;1535;51.098;6.414;2023-03-14T08:08:27;11.20;99.90
3051;DHT22;1535;51.098;6.414;2023-03-14T08:10:55;11.20;99.90
3051;DHT22;1535;51.098;6.414;2023-03-14T08:13:22;11.30;99.90
3051;DHT22;1535;51.098;6.414;2023-03-14T08:15:51;11.30;99.90
3051;DHT22;1535;51.098;6.414;2023-03-14T08:18:18;11.40;99.90
3051;DHT22;1535;51.098;6.414;2023-03-14T08:20:44;11.40;99.90
3051;DHT22;1535;51.098;6.414;2023-03-14T08:23:12;11.40;99.90
3051;DHT22;1535;51.098;6.414;2023-03-14T08:25:39;11.30;99.90
3051;DHT22;1535;51.098;6.414;2023-03-14T08:28:08;11.20;99.90
3051;DHT22;1535;51.098;6.414;2023-03-14T08:30:48;11.20;99.90
3051;DHT22;1535;51.098;6.414;2023-03-14T08:33:15;10.90;99.90
3051;DHT22;1535;51.098;6.414;2023-03-14T08:35:42;10.60;99.90
3051;DHT22;1535;51.098;6.414;2023-03-14T08:38:09;10.40;99.90
3051;DHT22;1535;51.098;6.414;2023-03-14T08:40:36;10.30;99.90
3051;DHT22;1535;51.098;6.414;2023-03-14T08:43:02;10.10;99.90
3051;DHT22;1535;51.098;6.414;2023-03-14T08:45:31;10.10;99.90
3051;DHT22;1535;51.098;6.414;2023-03-14T08:47:58;10.20;99.90
3051;DHT22;1535;51.098;6.414;2023-03-14T08:50:25;10.40;99.90
3051;DHT22;1535;51.098;6.414;2023-03-14T08:52:51;10.40;99.90
3051;DHT22;1535;51.098;6.414;2023-03-14T08:55:18;10.30;99.90
3051;DHT22;1535;51.098;6.414;2023-03-14T08:57:45;10.10;99.90
3051;DHT22;1535;51.098;6.414;2023-03-14T09:00:13;9.70;99.90
3051;DHT22;1535;51.098;6.414;2023-03-14T09:02:42;9.40;99.90
3051;DHT22;1535;51.098;6.414;2023-03-14T09:05:10;9.30;99.90
3051;DHT22;1535;51.098;6.414;2023-03-14T09:07:37;9.10;99.90
3051;DHT22;1535;51.098;6.414;2023-03-14T09:10:06;8.80;99.90
3051;DHT22;1535;51.098;6.414;2023-03-14T09:12:33;8.30;99.90
3051;DHT22;1535;51.098;6.414;2023-03-14T09:14:59;8.20;99.90
3051;DHT22;1535;51.098;6.414;2023-03-14T09:17:27;8.20;99.90
3051;DHT22;1535;51.098;6.414;2023-03-14T09:19:55;8.00;99.90
3051;DHT22;1535;51.098;6.414;2023-03-14T09:22:21;7.90;99.90
3051;DHT22;1535;51.098;6.414;2023-03-14T09:24:48;7.90;99.90
3051;DHT22;1535;51.098;6.414;2023-03-14T09:27:15;7.90;99.90
3051;DHT22;1535;51.098;6.414;2023-03-14T09:29:42;7.90;99.90
3051;DHT22;1535;51.098;6.414;2023-03-14T09:32:09;8.00;99.90
3051;DHT22;1535;51.098;6.414;2023-03-14T09:34:36;8.00;99.90
3051;DHT22;1535;51.098;6.414;2023-03-14T09:37:04;8.10;99.90
3051;DHT22;1535;51.098;6.414;2023-03-14T09:39:31;8.20;99.90
3051;DHT22;1535;51.098;6.414;2023-03-14T09:42:02;8.20;99.90
3051;DHT22;1535;51.098;6.414;2023-03-14T09:44:33;8.20;99.90
3051;DHT22;1535;51.098;6.414;2023-03-14T09:47:02;8.00;99.90
3051;DHT22;1535;51.098;6.414;2023-03-14T09:49:33;7.80;99.90
3051;DHT22;1535;51.098;6.414;2023-03-14T09:52:02;7.70;99.90
3051;DHT22;1535;51.098;6.414;2023-03-14T09:54:36;7.60;99.90
3051;DHT22;1535;51.098;6.414;2023-03-14T09:57:05;7.60;99.90
3051;DHT22;1535;51.098;6.414;2023-03-14T09:59:37;7.50;99.90
3051;DHT22;1535;51.098;6.414;2023-03-14T10:02:15;7.40;99.90
3051;DHT22;1535;51.098;6.414;2023-03-14T10:04:44;7.30;99.90
3051;DHT22;1535;51.098;6.414;2023-03-14T10:07:13;7.40;99.90
3051;DHT22;1535;51.098;6.414;2023-03-14T10:09:43;7.40;99.90
3051;DHT22;1535;51.098;6.414;2023-03-14T10:12:12;7.50;99.90
3051;DHT22;1535;51.098;6.414;2023-03-14T10:14:46;7.50;99.90
3051;DHT22;1535;51.098;6.414;2023-03-14T10:17:14;7.60;99.90
3051;DHT22;1535;51.098;6.414;2023-03-14T10:19:52;7.60;99.90
3051;DHT22;1535;51.098;6.414;2023-03-14T10:22:19;7.60;99.90
3051;DHT22;1535;51.098;6.414;2023-03-14T10:24:52;7.60;99.90
3051;DHT22;1535;51.098;6.414;2023-03-14T10:27:21;7.60;99.90
3051;DHT22;1535;51.098;6.414;2023-03-14T10:29:53;7.60;99.90
3051;DHT22;1535;51.098;6.414;2023-03-14T10:32:20;7.70;99.90
3051;DHT22;1535;51.098;6.414;2023-03-14T10:35:05;7.70;99.90
3051;DHT22;1535;51.098;6.414;2023-03-14T10:37:32;7.80;99.90
3051;DHT22;1535;51.098;6.414;2023-03-14T10:40:01;7.70;99.90
3051;DHT22;1535;51.098;6.414;2023-03-14T10:42:32;7.60;99.90
3051;DHT22;1535;51.098;6.414;2023-03-14T10:45:02;7.70;99.90
3051;DHT22;1535;51.098;6.414;2023-03-14T10:47:32;7.90;99.90
3051;DHT22;1535;51.098;6.414;2023-03-14T10:50:23;8.00;99.90
3051;DHT22;1535;51.098;6.414;2023-03-14T10:52:52;8.00;99.90
3051;DHT22;1535;51.098;6.414;2023-03-14T10:55:23;8.10;99.90
3051;DHT22;1535;51.098;6.414;2023-03-14T10:57:51;8.30;99.90
3051;DHT22;1535;51.098;6.414;2023-03-14T11:00:21;8.30;99.90
3051;DHT22;1535;51.098;6.414;2023-03-14T11:02:58;8.40;99.90
3051;DHT22;1535;51.098;6.414;2023-03-14T11:05:33;8.50;99.90
3051;DHT22;1535;51.098;6.414;2023-03-14T11:08:04;8.30;99.90
3051;DHT22;1535;51.098;6.414;2023-03-14T11:10:36;7.00;99.90
3051;DHT22;1535;51.098;6.414;2023-03-14T11:13:15;6.50;99.90
3051;DHT22;1535;51.098;6.414;2023-03-14T11:15:49;6.20;99.90
3051;DHT22;1535;51.098;6.414;2023-03-14T11:21:18;6.30;99.90
3051;DHT22;1535;51.098;6.414;2023-03-14T11:23:53;6.30;99.90
3051;DHT22;1535;51.098;6.414;2023-03-14T11:26:29;6.30;99.90
3051;DHT22;1535;51.098;6.414;2023-03-14T11:29:07;6.30;99.90
3051;DHT22;1535;51.098;6.414;2023-03-14T11:31:36;6.40;99.90
3051;DHT22;1535;51.098;6.414;2023-03-14T11:34:10;6.50;99.90
3051;DHT22;1535;51.098;6.414;2023-03-14T11:36:41;6.60;99.90
3051;DHT22;1535;51.098;6.414;2023-03-14T11:39:14;6.70;99.90
3051;DHT22;1535;51.098;6.414;2023-03-14T11:41:46;6.60;99.90
3051;DHT22;1535;51.098;6.414;2023-03-14T11:44:17;6.70;99.90
3051;DHT22;1535;51.098;6.414;2023-03-14T11:46:48;6.80;99.90
3051;DHT22;1535;51.098;6.414;2023-03-14T11:49:24;6.80;99.90
3051;DHT22;1535;51.098;6.414;2023-03-14T11:51:56;6.90;99.90
3051;DHT22;1535;51.098;6.414;2023-03-14T11:54:31;7.00;99.90
3051;DHT22;1535;51.098;6.414;2023-03-14T11:57:02;6.90;99.90
3051;DHT22;1535;51.098;6.414;2023-03-14T11:59:33;6.90;99.90
3051;DHT22;1535;51.098;6.414;2023-03-14T12:02:04;6.90;99.90
3051;DHT22;1535;51.098;6.414;2023-03-14T12:04:45;7.00;99.90
3051;DHT22;1535;51.098;6.414;2023-03-14T12:07:18;6.80;99.90
3051;DHT22;1535;51.098;6.414;2023-03-14T12:09:47;6.80;99.90
3051;DHT22;1535;51.098;6.414;2023-03-14T12:12:18;6.70;99.90
3051;DHT22;1535;51.098;6.414;2023-03-14T12:14:52;6.80;99.90
3051;DHT22;1535;51.098;6.414;2023-03-14T12:17:23;6.80;99.90
3051;DHT22;1535;51.098;6.414;2023-03-14T12:20:01;6.80;99.90
3051;DHT22;1535;51.098;6.414;2023-03-14T12:22:30;6.80;99.90
3051;DHT22;1535;51.098;6.414;2023-03-14T12:25:00;6.90;99.90
3051;DHT22;1535;51.098;6.414;2023-03-14T12:27:44;7.10;99.90
3051;DHT22;1535;51.098;6.414;2023-03-14T12:30:27;7.70;99.90
3051;DHT22;1535;51.098;6.414;2023-03-14T12:33:21;8.60;99.90
3051;DHT22;1535;51.098;6.414;2023-03-14T12:35:57;8.70;99.90
3051;DHT22;1535;51.098;6.414;2023-03-14T12:38:29;8.30;99.90
3051;DHT22;1535;51.098;6.414;2023-03-14T12:41:01;7.90;99.90
3051;DHT22;1535;51.098;6.414;2023-03-14T12:43:32;8.00;99.90
3051;DHT22;1535;51.098;6.414;2023-03-14T12:46:24;8.30;99.90
3051;DHT22;1535;51.098;6.414;2023-03-14T12:48:55;8.80;99.90
3051;DHT22;1535;51.098;6.414;2023-03-14T12:51:29;9.00;99.90
3051;DHT22;1535;51.098;6.414;2023-03-14T12:54:16;9.60;99.90
3051;DHT22;1535;51.098;6.414;2023-03-14T12:56:52;10.10;99.90
3051;DHT22;1535;51.098;6.414;2023-03-14T12:59:35;10.40;99.90
3051;DHT22;1535;51.098;6.414;2023-03-14T13:02:21;10.10;99.90
3051;DHT22;1535;51.098;6.414;2023-03-14T13:04:50;9.50;99.90
3051;DHT22;1535;51.098;6.414;2023-03-14T13:07:38;8.80;99.90
3051;DHT22;1535;51.098;6.414;2023-03-14T13:10:27;7.90;99.90
3051;DHT22;1535;51.098;6.414;2023-03-14T13:12:56;7.10;99.90
3051;DHT22;1535;51.098;6.414;2023-03-14T13:15:27;6.70;99.90
3051;DHT22;1535;51.098;6.414;2023-03-14T13:17:59;6.20;99.90
3051;DHT22;1535;51.098;6.414;2023-03-14T13:20:30;6.20;99.90
3051;DHT22;1535;51.098;6.414;2023-03-14T13:22:57;6.10;99.90
3051;DHT22;1535;51.098;6.414;2023-03-14T13:25:29;6.00;99.90
3051;DHT22;1535;51.098;6.414;2023-03-14T13:27:56;6.00;99.90
3051;DHT22;1535;51.098;6.414;2023-03-14T13:30:25;6.00;99.90
3051;DHT22;1535;51.098;6.414;2023-03-14T13:32:53;6.00;99.90
3051;DHT22;1535;51.098;6.414;2023-03-14T13:35:24;6.10;99.90
3051;DHT22;1535;51.098;6.414;2023-03-14T13:37:56;6.10;99.90
3051;DHT22;1535;51.098;6.414;2023-03-14T13:40:30;6.20;99.90
3051;DHT22;1535;51.098;6.414;2023-03-14T13:43:15;6.50;99.90
3051;DHT22;1535;51.098;6.414;2023-03-14T13:45:50;6.60;99.90
3051;DHT22;1535;51.098;6.414;2023-03-14T13:48:19;6.60;99.90
3051;DHT22;1535;51.098;6.414;2023-03-14T13:50:51;6.50;99.90
3051;DHT22;1535;51.098;6.414;2023-03-14T13:53:19;6.30;99.90
3051;DHT22;1535;51.098;6.414;2023-03-14T13:55:49;6.30;99.90
3051;DHT22;1535;51.098;6.414;2023-03-14T13:58:24;6.20;99.90
3051;DHT22;1535;51.098;6.414;2023-03-14T14:00:58;6.30;99.90
3051;DHT22;1535;51.098;6.414;2023-03-14T14:03:25;6.30;99.90
3051;DHT22;1535;51.098;6.414;2023-03-14T14:05:53;6.40;99.90
3051;DHT22;1535;51.098;6.414;2023-03-14T14:08:20;6.60;99.90
3051;DHT22;1535;51.098;6.414;2023-03-14T14:10:49;6.70;99.90
3051;DHT22;1535;51.098;6.414;2023-03-14T14:13:18;6.90;99.90
3051;DHT22;1535;51.098;6.414;2023-03-14T14:15:49;7.00;99.90
3051;DHT22;1535;51.098;6.414;2023-03-14T14:18:19;7.10;99.90
3051;DHT22;1535;51.098;6.414;2023-03-14T14:20:49;7.30;99.90
3051;DHT22;1535;51.098;6.414;2023-03-14T14:23:19;7.60;99.90
3051;DHT22;1535;51.098;6.414;2023-03-14T14:25:52;7.70;99.90
3051;DHT22;1535;51.098;6.414;2023-03-14T14:28:25;7.80;99.90
3051;DHT22;1535;51.098;6.414;2023-03-14T14:31:05;7.80;99.90
3051;DHT22;1535;51.098;6.414;2023-03-14T14:33:40;8.00;99.90
3051;DHT22;1535;51.098;6.414;2023-03-14T14:36:16;8.20;99.90
3051;DHT22;1535;51.098;6.414;2023-03-14T14:38:51;8.20;99.90
3051;DHT22;1535;51.098;6.414;2023-03-14T14:41:19;8.20;99.90
3051;DHT22;1535;51.098;6.414;2023-03-14T14:43:46;8.40;99.90
3051;DHT22;1535;51.098;6.414;2023-03-14T14:46:17;8.30;99.90
3051;DHT22;1535;51.098;6.414;2023-03-14T14:48:45;8.20;99.90
3051;DHT22;1535;51.098;6.414;2023-03-14T14:51:24;8.20;99.90
3051;DHT22;1535;51.098;6.414;2023-03-14T14:54:10;8.20;99.90
3051;DHT22;1535;51.098;6.414;2023-03-14T14:56:39;8.10;99.90
3051;DHT22;1535;51.098;6.414;2023-03-14T14:59:20;8.20;99.90
3051;DHT22;1535;51.098;6.414;2023-03-14T15:01:47;8.20;99.90
3051;DHT22;1535;51.098;6.414;2023-03-14T15:04:16;8.20;99.90
3051;DHT22;1535;51.098;6.414;2023-03-14T15:06:45;8.30;99.90
3051;DHT22;1535;51.098;6.414;2023-03-14T15:09:13;8.30;99.90
3051;DHT22;1535;51.098;6.414;2023-03-14T15:11:43;8.40;99.90
3051;DHT22;1535;51.098;6.414;2023-03-14T15:14:10;8.30;99.90
3051;DHT22;1535;51.098;6.414;2023-03-14T15:16:38;8.30;99.90
3051;DHT22;1535;51.098;6.414;2023-03-14T15:19:12;8.20;99.90
3051;DHT22;1535;51.098;6.414;2023-03-14T15:21:39;8.20;99.90
3051;DHT22;1535;51.098;6.414;2023-03-14T15:24:09;8.40;99.90
3051;DHT22;1535;51.098;6.414;2023-03-14T15:26:36;8.40;99.90
3051;DHT22;1535;51.098;6.414;2023-03-14T15:29:05;8.50;99.90
3051;DHT22;1535;51.098;6.414;2023-03-14T15:31:33;8.50;99.90
3051;DHT22;1535;51.098;6.414;2023-03-14T15:34:00;8.50;99.90
3051;DHT22;1535;51.098;6.414;2023-03-14T15:36:28;8.50;99.90
3051;DHT22;1535;51.098;6.414;2023-03-14T15:38:57;8.60;99.90
3051;DHT22;1535;51.098;6.414;2023-03-14T15:41:26;8.50;99.90
3051;DHT22;1535;51.098;6.414;2023-03-14T15:43:54;8.60;99.90
3051;DHT22;1535;51.098;6.414;2023-03-14T15:46:22;8.50;99.90
3051;DHT22;1535;51.098;6.414;2023-03-14T15:48:50;8.40;99.90
3051;DHT22;1535;51.098;6.414;2023-03-14T15:51:17;8.20;99.90
3051;DHT22;1535;51.098;6.414;2023-03-14T15:53:45;8.10;99.90
3051;DHT22;1535;51.098;6.414;2023-03-14T15:56:15;8.10;99.90
3051;DHT22;1535;51.098;6.414;2023-03-14T15:58:42;8.10;99.90
3051;DHT22;1535;51.098;6.414;2023-03-14T16:01:12;8.10;99.90
3051;DHT22;1535;51.098;6.414;2023-03-14T16:03:40;7.90;99.90
3051;DHT22;1535;51.098;6.414;2023-03-14T16:06:09;7.80;99.90
3051;DHT22;1535;51.098;6.414;2023-03-14T16:08:36;7.80;99.90
3051;DHT22;1535;51.098;6.414;2023-03-14T16:11:03;7.80;99.90
3051;DHT22;1535;51.098;6.414;2023-03-14T16:13:30;7.70;99.90
3051;DHT22;1535;51.098;6.414;2023-03-14T16:15:58;7.70;99.90
3051;DHT22;1535;51.098;6.414;2023-03-14T16:18:27;7.60;99.90
3051;DHT22;1535;51.098;6.414;2023-03-14T16:21:11;7.60;99.90
3051;DHT22;1535;51.098;6.414;2023-03-14T16:23:38;7.60;99.90
3051;DHT22;1535;51.098;6.414;2023-03-14T16:26:07;7.60;99.90
3051;DHT22;1535;51.098;6.414;2023-03-14T16:28:34;7.50;99.90
3051;DHT22;1535;51.098;6.414;2023-03-14T16:31:02;7.50;99.90
3051;DHT22;1535;51.098;6.414;2023-03-14T16:33:29;7.50;99.90
3051;DHT22;1535;51.098;6.414;2023-03-14T16:35:57;7.40;99.90